GetGPSは位置情報をもとに「Hakodate, Hokkaido 042-0952, Japan (北緯41度46分31.81秒、東経140度48分56.88秒、位置: Japan, 〒042-0952 Hokkaido, Hakodate, Takamatsuchō, 511 函館空港)」付近の「@rjch_metar」が含まれるTweet(ツイート)を取得しました。現在地の取得は今すぐ「GetGPS」ボタンをクリック(またはタップ)!

GetGPS [Click or Tap]

translate:
latitude: 41.77550252330288
longitude: 140.81579879120048
links: PLINK  GMAP  OSM  HOME 
popularity:  Saku,殺害予告犯福寿洋輔容疑者(18)  Sumida-ku(5)  Ōsaka-shi,俺(4)  Ōsaka-shi,ドリンク(4)  none(4)  Ashburn(4)  大阪市,冷凍試着(3)  Ōsaka-shi,かわいそう(3)  Shinjuku City(3)  Shinjuku-ku,終わり(3)  Saitama(3)  Shinjuku-ku,場所(2)  Shinjuku-ku,嶺生まや(2)  Independence(2)  none,#으라차차만수로(2)  none,#최병찬_재합류해(2)  Ashburn,"Chuck+Woolery"(2)  Ashburn,#7YearsOfFifthHarmony(2)  Ashburn,#BuildThatWall(2)  Ashburn,#OITNB(2)  Ashburn,#TuesdayThoughts(2)  Ashburn,Baker(2)  Ashburn,Conan(2)  Ashburn,Mine(2) 
@rjch_metar
rjch_metar
RJCH METAR @rjch_metar
RJCH 242110Z VRB02KT 9999 FEW030 SCT040 18/16 Q1009 RMK 1CU030 3CU040 A2980 (1時間前)
rjch_metar
RJCH METAR @rjch_metar
RJCH 241711Z 2418/2600 30006KT 9999 FEW020 BKN040 BECMG 2512/2515 04005KT BECMG 2521/2600 20006KT (4時間前)
rjch_metar
RJCH METAR @rjch_metar
RJCH 241111Z 2412/2518 31005KT 9999 FEW020 BKN040 (5時間前)
rjch_metar
RJCH METAR @rjch_metar
RJCH 241100Z 29007KT 250V350 9999 FEW025 19/16 Q1007 (10時間前)
rjch_metar
RJCH METAR @rjch_metar
RJCH 241000Z 28010KT 250V310 9999 FEW020 SCT025 20/16 Q1007 (11時間前)
rjch_metar
RJCH METAR @rjch_metar
RJCH 240900Z 29014KT 9999 FEW020 SCT025 20/16 Q1006 (12時間前)
rjch_metar
RJCH METAR @rjch_metar
RJCH 240800Z 29012KT 270V330 9999 FEW020 SCT030 22/17 Q1006 (13時間前)
rjch_metar
RJCH METAR @rjch_metar
RJCH 240700Z 29015KT 9999 FEW025 SCT035 24/17 Q1005 (15時間前)
rjch_metar
RJCH METAR @rjch_metar
RJCH 240600Z 29013KT 9999 FEW025 SCT030 25/17 Q1005 (16時間前)
rjch_metar
RJCH METAR @rjch_metar
RJCH 240500Z 27014KT 9999 FEW025 SCT030 BKN080 24/18 Q1005 (16時間前)
rjch_metar
RJCH METAR @rjch_metar
RJCH 240400Z 26013KT 9999 VCSH FEW030 SCT040 BKN050 24/18 Q1005 (17時間前)
rjch_metar
RJCH METAR @rjch_metar
RJCH 240300Z 27014KT 9999 -SHRA FEW025 SCT030 BKN050 22/19 Q1005 (19時間前)
rjch_metar
RJCH METAR @rjch_metar
RJCH 240200Z 30017KT 9999 FEW020 BKN035 25/19 Q1004 (20時間前)
rjch_metar
RJCH METAR @rjch_metar
RJCH 240100Z 26008KT 230V290 9999 FEW020 BKN030 24/18 Q1004 (20時間前)
rjch_metar
RJCH METAR @rjch_metar
RJCH 240000Z 26009KT 9999 FEW020 BKN025 23/18 Q1004 (21時間前)
rjch_metar
RJCH METAR @rjch_metar
RJCH 232300Z 28011KT 9999 FEW020 SCT030 23/19 Q1004 (22時間前)
rjch_metar
RJCH METAR @rjch_metar
RJCH 232200Z 28005KT 9999 SCT020 BKN030 22/19 Q1004 (23時間前)
rjch_metar
RJCH METAR @rjch_metar
RJCH 232110Z 31004KT 270V360 9999 FEW018 SCT030 BKN120 21/19 Q1003 RMK 1ST018 4CU030 5AC120 A2964 (1日前)
rjch_metar
RJCH METAR @rjch_metar
RJCH 231709Z 2318/2500 27011KT 9999 FEW010 BKN025 TEMPO 2400/2406 4000 SHRA BR BKN008 BKN025 FEW025CB (1日前)
rjch_metar
RJCH METAR @rjch_metar
RJCH 231106Z 19012KT 150V220 9999 -SHRA FEW009 BKN015 BKN020 22/21 Q1001 RMK 2ST009 5ST015 6CU020 A2958 (1日前)
rjch_metar
RJCH METAR @rjch_metar
RJCH 231017Z 09010KT 9999 SCT006 BKN010 BKN020 21/20 Q1001 RMK 3ST006 5ST010 6CU020 A2957 (1日前)
rjch_metar
RJCH METAR @rjch_metar
RJCH 230900Z 10011KT 9999 FEW004 BKN006 BKN010 20/20 Q1001 (1日前)
rjch_metar
RJCH METAR @rjch_metar
RJCH 230833Z 11014KT 9999 FEW003 BKN005 BKN008 20/20 Q1001 RMK 1ST003 5ST005 7ST008 A2958 (1日前)
rjch_metar
RJCH METAR @rjch_metar
RJCH 230800Z 11016KT 9999 FEW003 BKN007 BKN010 20/20 Q1001 (1日前)
rjch_metar
RJCH METAR @rjch_metar
RJCH 230700Z 11018KT 9000 -SHRA FEW004 BKN007 BKN010 21/20 Q1001 (1日前)
trends: 大好き(428128) ゲーム(415055) フォロー(2044268) ライブ(537338) ジオウ最終回(14717) #symphogear(48044) #バリバラ(18979) #今井リサ生誕祭2019(16330) 第3週目(162049) オーブ75個(84577) 未来さん(12158) #annkw(10463) 

Japan >  Hokkaido >  Hakodate

your IP: 34.238.194.166

©2019 PRNDC.COM

トップに戻る